Time;durP1;ratioP1;P1;durP2;ratioP2;P2;SDS_P1;SDS_P2;PMS_P1;PMS_P2;Temp;Humidity;BMP_temperature;BMP_pressure;BME280_temperature;BME280_humidity;BME280_pressure;Samples;Min_cycle;Max_cycle;Signal;HPM_P1;HPM_P2
2021/01/18 00:01:05;;;;;;;;;;;;;;;21.84;16.07;97916.00;5129897;28;983;-79
2021/01/18 00:03:31;;;;;;;;;;;;;;;21.59;16.24;97910.25;5128099;28;830;-79
2021/01/18 00:05:59;;;;;;;;;;;;;;;21.79;16.15;97910.88;5129424;28;1084;-78
2021/01/18 00:08:25;;;;;;;;;;;;;;;21.82;16.17;97895.84;5128427;28;717;-79
2021/01/18 00:10:50;;;;;;;;;;;;;;;22.20;15.71;97906.47;5129190;28;626;-79
2021/01/18 00:13:15;;;;;;;;;;;;;;;21.69;16.20;97903.50;5127959;28;928;-79
2021/01/18 00:15:41;;;;;;;;;;;;;;;21.58;16.24;97909.47;5128988;28;837;-79
2021/01/18 00:18:06;;;;;;;;;;;;;;;22.05;15.83;97902.44;5128350;28;1952;-79
2021/01/18 00:20:32;;;;;;;;;;;;;;;21.96;15.93;97900.28;5129237;28;737;-79
2021/01/18 00:22:57;;;;;;;;;;;;;;;21.69;15.81;97914.81;5128702;28;650;-78
2021/01/18 00:25:23;;;;;;;;;;;;;;;21.59;16.30;97910.25;5110938;28;713;-79
2021/01/18 00:27:48;;;;;;;;;;;;;;;21.53;16.10;97917.69;5128372;28;860;-79
2021/01/18 00:30:23;;;;;;;;;;;;;;;21.53;16.17;97912.03;5110537;28;909;-79
2021/01/18 00:32:49;;;;;;;;;;;;;;;21.74;15.92;97914.25;5110966;28;670;-79
2021/01/18 00:35:15;;;;;;;;;;;;;;;21.99;15.91;97918.41;5128651;28;753;-79
2021/01/18 00:37:44;;;;;;;;;;;;;;;22.15;15.37;97928.91;5110233;28;904;-79
2021/01/18 00:40:10;;;;;;;;;;;;;;;22.00;15.54;97922.84;5128105;28;1961;-79
2021/01/18 00:42:35;;;;;;;;;;;;;;;21.54;15.84;97922.13;5110695;28;995;-79
2021/01/18 00:45:01;;;;;;;;;;;;;;;22.14;15.21;97919.63;5109666;28;1203;-79
2021/01/18 00:47:26;;;;;;;;;;;;;;;21.55;15.85;97920.88;5128507;28;1049;-80
2021/01/18 00:49:52;;;;;;;;;;;;;;;21.86;15.81;97929.69;5110206;28;1240;-78
2021/01/18 00:52:17;;;;;;;;;;;;;;;21.02;16.29;97923.84;5128529;28;664;-79
2021/01/18 00:54:43;;;;;;;;;;;;;;;21.20;16.22;97922.63;5109933;28;1136;-79
2021/01/18 00:57:31;;;;;;;;;;;;;;;21.63;15.93;97922.28;5109992;28;1401;-79
2021/01/18 00:59:57;;;;;;;;;;;;;;;21.65;15.71;97931.09;5092533;28;1974;-79
2021/01/18 01:02:23;;;;;;;;;;;;;;;21.43;15.92;97928.06;5111039;28;1219;-79
2021/01/18 01:04:48;;;;;;;;;;;;;;;21.23;16.13;97933.03;5110027;28;1217;-79
2021/01/18 01:07:14;;;;;;;;;;;;;;;21.37;16.00;97931.91;5128200;28;814;-79
2021/01/18 01:09:39;;;;;;;;;;;;;;;22.05;15.45;97934.41;5127612;28;754;-79
2021/01/18 01:12:05;;;;;;;;;;;;;;;21.88;15.76;97940.59;5128124;28;967;-79
2021/01/18 01:14:30;;;;;;;;;;;;;;;22.33;15.30;97929.97;5109321;28;1279;-79
2021/01/18 01:16:56;;;;;;;;;;;;;;;21.74;15.55;97928.44;5127871;28;1070;-79
2021/01/18 01:19:24;;;;;;;;;;;;;;;21.84;15.44;97938.66;5127363;28;1901;-79
2021/01/18 01:21:50;;;;;;;;;;;;;;;21.85;15.70;97940.25;5127857;28;698;-79
2021/01/18 01:24:18;;;;;;;;;;;;;;;22.02;15.29;97926.00;5127345;28;662;-79
2021/01/18 01:26:44;;;;;;;;;;;;;;;21.53;15.95;97924.16;5127700;28;895;-78
2021/01/18 01:29:09;;;;;;;;;;;;;;;21.59;15.77;97924.41;5109319;28;847;-79
2021/01/18 01:31:35;;;;;;;;;;;;;;;21.42;16.17;97929.31;5127859;28;1064;-79
2021/01/18 01:34:00;;;;;;;;;;;;;;;21.76;15.40;97937.28;5127136;28;794;-79
2021/01/18 01:36:25;;;;;;;;;;;;;;;21.83;15.72;97930.63;5127892;28;713;-79
2021/01/18 01:38:51;;;;;;;;;;;;;;;21.56;15.97;97939.47;5126519;28;1898;-79
2021/01/18 01:41:16;;;;;;;;;;;;;;;22.02;15.53;97938.16;5127563;28;982;-79
2021/01/18 01:43:42;;;;;;;;;;;;;;;21.71;15.50;97935.00;5126777;28;825;-79
2021/01/18 01:46:07;;;;;;;;;;;;;;;21.54;15.82;97944.75;5127733;28;937;-79
2021/01/18 01:48:33;;;;;;;;;;;;;;;21.81;15.76;97938.75;5109289;28;677;-79
2021/01/18 01:50:58;;;;;;;;;;;;;;;21.56;16.09;97933.81;5110065;28;919;-79
2021/01/18 01:53:26;;;;;;;;;;;;;;;21.39;16.10;97940.72;5109100;28;622;-79
2021/01/18 01:55:51;;;;;;;;;;;;;;;21.85;15.68;97945.13;5109455;28;1122;-79
2021/01/18 01:58:17;;;;;;;;;;;;;;;22.29;15.21;97934.94;5125927;28;1893;-79
2021/01/18 02:00:42;;;;;;;;;;;;;;;21.71;15.75;97935.00;5109490;28;955;-78
2021/01/18 02:03:08;;;;;;;;;;;;;;;21.53;15.87;97946.00;5109073;28;690;-79
2021/01/18 02:05:33;;;;;;;;;;;;;;;22.01;15.47;97941.41;5126894;28;729;-79
2021/01/18 02:07:59;;;;;;;;;;;;;;;21.81;15.45;97950.91;5109182;28;660;-78
2021/01/18 02:10:25;;;;;;;;;;;;;;;21.54;15.79;97941.94;5126288;28;876;-80
2021/01/18 02:12:50;;;;;;;;;;;;;;;21.56;15.72;97945.13;5126760;28;992;-79
2021/01/18 02:15:18;;;;;;;;;;;;;;;21.46;15.87;97940.56;5126568;28;890;-79
2021/01/18 02:17:56;;;;;;;;;;;;;;;21.89;15.47;97945.03;5109229;28;575;-79
2021/01/18 02:20:38;;;;;;;;;;;;;;;21.00;16.12;97951.00;5126576;28;690;-79
2021/01/18 02:23:15;;;;;;;;;;;;;;;21.33;15.69;97943.31;5108335;28;677;-79
2021/01/18 02:25:41;;;;;;;;;;;;;;;21.87;15.32;97950.34;5126341;28;892;-79
2021/01/18 02:28:12;;;;;;;;;;;;;;;21.70;15.49;97950.38;5108216;28;935;-78
2021/01/18 02:30:47;;;;;;;;;;;;;;;21.85;15.22;97954.41;5109378;28;722;-79
2021/01/18 02:33:19;;;;;;;;;;;;;;;21.41;15.86;97949.59;5108252;28;749;-79
2021/01/18 02:36:03;;;;;;;;;;;;;;;21.69;15.40;97948.78;5126693;28;626;-79
2021/01/18 02:38:35;;;;;;;;;;;;;;;21.49;15.69;97945.31;5107799;28;1942;-79
2021/01/18 02:41:01;;;;;;;;;;;;;;;21.71;15.41;97963.31;5126404;28;990;-79
2021/01/18 02:43:28;;;;;;;;;;;;;;;21.53;15.31;97958.13;5125157;28;823;-79
2021/01/18 02:45:53;;;;;;;;;;;;;;;21.47;15.53;97948.59;5127071;28;926;-79
2021/01/18 02:48:19;;;;;;;;;;;;;;;21.12;15.65;97955.94;5107793;28;784;-79
2021/01/18 02:50:45;;;;;;;;;;;;;;;21.72;15.24;97964.91;5110488;28;745;-79
2021/01/18 02:53:10;;;;;;;;;;;;;;;21.47;15.47;97959.13;5112256;28;645;-79
2021/01/18 02:55:35;;;;;;;;;;;;;;;21.59;15.28;97961.22;5130039;28;1126;-79
2021/01/18 02:58:02;;;;;;;;;;;;;;;21.91;15.17;97965.97;5129635;28;1893;-79
2021/01/18 03:00:32;;;;;;;;;;;;;;;21.43;15.51;97964.09;5130149;28;976;-79
2021/01/18 03:02:57;;;;;;;;;;;;;;;21.29;15.87;97966.00;5112102;28;705;-78
2021/01/18 03:05:26;;;;;;;;;;;;;;;21.70;15.46;97966.59;5129968;28;716;-78
2021/01/18 03:08:00;;;;;;;;;;;;;;;21.50;15.22;97970.38;5129863;28;752;-79
2021/01/18 03:10:40;;;;;;;;;;;;;;;21.27;15.56;97962.03;5129321;28;1036;-79
2021/01/18 03:13:25;;;;;;;;;;;;;;;21.55;15.30;97974.66;5111442;28;900;-79
2021/01/18 03:15:53;;;;;;;;;;;;;;;21.55;15.45;97969.00;5130137;28;1016;-79
2021/01/18 03:18:19;;;;;;;;;;;;;;;21.56;15.32;97964.94;5111677;28;1905;-79
2021/01/18 03:20:44;;;;;;;;;;;;;;;21.28;15.49;97978.56;5112287;28;606;-79
2021/01/18 03:23:09;;;;;;;;;;;;;;;21.73;15.25;97975.00;5111515;28;672;-79
2021/01/18 03:25:47;;;;;;;;;;;;;;;21.10;15.69;97969.75;5095155;28;909;-79
2021/01/18 03:28:13;;;;;;;;;;;;;;;21.27;15.54;97974.16;5128774;28;872;-79
2021/01/18 03:30:38;;;;;;;;;;;;;;;21.44;15.59;97976.97;5129857;28;642;-79
2021/01/18 03:33:04;;;;;;;;;;;;;;;21.09;15.81;97973.81;5128959;28;650;-79
2021/01/18 03:35:29;;;;;;;;;;;;;;;21.43;15.47;97973.38;5129684;28;619;-79
2021/01/18 03:37:55;;;;;;;;;;;;;;;21.40;15.51;97965.78;5128681;28;1893;-79
2021/01/18 03:40:21;;;;;;;;;;;;;;;21.28;15.50;97974.94;5129146;28;868;-79
2021/01/18 03:43:05;;;;;;;;;;;;;;;21.40;15.41;97981.94;5112106;28;919;-79
2021/01/18 03:45:32;;;;;;;;;;;;;;;22.09;14.79;97980.44;5112056;28;638;-79
2021/01/18 03:47:57;;;;;;;;;;;;;;;21.78;15.44;97985.78;5111966;28;662;-79
2021/01/18 03:50:23;;;;;;;;;;;;;;;21.27;15.55;97979.81;5112131;28;654;-79
2021/01/18 03:52:48;;;;;;;;;;;;;;;21.56;15.17;97982.72;5111743;28;734;-79
2021/01/18 03:55:14;;;;;;;;;;;;;;;21.47;15.49;97976.13;5110316;28;1205;-79
2021/01/18 03:57:40;;;;;;;;;;;;;;;21.71;15.02;97985.97;5111349;28;800;-79
2021/01/18 04:00:06;;;;;;;;;;;;;;;21.42;15.53;97990.81;5128963;28;1995;-79
2021/01/18 04:02:31;;;;;;;;;;;;;;;21.53;15.63;97988.47;5111558;28;671;-79
2021/01/18 04:04:57;;;;;;;;;;;;;;;21.61;15.33;97998.38;5110895;28;694;-79
2021/01/18 04:07:25;;;;;;;;;;;;;;;21.22;15.79;97999.34;5129694;28;641;-79
2021/01/18 04:09:51;;;;;;;;;;;;;;;21.63;15.44;98000.75;5110874;28;1121;-79
2021/01/18 04:12:16;;;;;;;;;;;;;;;21.01;16.07;98000.69;5129043;28;843;-79
2021/01/18 04:14:42;;;;;;;;;;;;;;;21.37;15.58;98005.50;5110702;28;1098;-79
2021/01/18 04:17:07;;;;;;;;;;;;;;;22.71;14.37;98002.94;5129348;28;785;-79
2021/01/18 04:19:33;;;;;;;;;;;;;;;23.06;14.17;98014.44;5110977;28;1918;-79
2021/01/18 04:21:58;;;;;;;;;;;;;;;21.73;15.31;98005.34;5129280;28;714;-79
2021/01/18 04:24:24;;;;;;;;;;;;;;;22.07;14.89;98001.94;5129032;28;634;-79
2021/01/18 04:26:49;;;;;;;;;;;;;;;21.77;15.32;98012.50;5129203;28;709;-79
2021/01/18 04:29:15;;;;;;;;;;;;;;;21.95;15.14;98019.72;5110784;28;990;-79
2021/01/18 04:31:40;;;;;;;;;;;;;;;21.41;15.68;98017.53;5128265;28;955;-79
2021/01/18 04:34:06;;;;;;;;;;;;;;;21.57;15.45;98014.66;5128669;28;913;-79
2021/01/18 04:36:36;;;;;;;;;;;;;;;21.48;15.51;98018.13;5111483;28;559;-79
2021/01/18 04:39:02;;;;;;;;;;;;;;;21.13;14.91;97850.03;5110826;28;1910;-79
2021/01/18 04:41:28;;;;;;;;;;;;;;;21.28;15.60;98025.88;5129177;28;717;-79
2021/01/18 04:43:53;;;;;;;;;;;;;;;22.07;14.92;98018.97;5109760;28;964;-79
2021/01/18 04:46:19;;;;;;;;;;;;;;;21.76;15.38;98022.25;5110753;28;923;-79
2021/01/18 04:48:44;;;;;;;;;;;;;;;22.20;15.11;98033.22;5109752;28;932;-79
2021/01/18 04:51:13;;;;;;;;;;;;;;;21.83;15.39;98026.91;5128880;28;622;-78
2021/01/18 04:53:38;;;;;;;;;;;;;;;21.82;15.14;98031.00;5110122;28;721;-79
2021/01/18 04:56:12;;;;;;;;;;;;;;;21.47;15.59;98032.72;5111408;28;1154;-79
2021/01/18 04:58:38;;;;;;;;;;;;;;;21.75;15.19;98037.63;5110826;28;1910;-80
2021/01/18 05:01:05;;;;;;;;;;;;;;;22.32;15.02;98041.75;5129691;28;813;-80
2021/01/18 05:03:35;;;;;;;;;;;;;;;22.19;15.11;98043.75;5109524;28;849;-79
2021/01/18 05:06:25;;;;;;;;;;;;;;;21.92;15.30;98037.63;5128404;28;646;-79
2021/01/18 05:09:00;;;;;;;;;;;;;;;21.77;15.20;98040.84;5127039;28;649;-79
2021/01/18 05:11:26;;;;;;;;;;;;;;;22.17;15.12;98051.91;5123375;28;636;-77
2021/01/18 05:13:51;;;;;;;;;;;;;;;22.33;14.77;98043.34;5106994;28;1029;-79
2021/01/18 05:16:16;;;;;;;;;;;;;;;22.63;14.81;98044.88;5108941;28;960;-79
2021/01/18 05:18:42;;;;;;;;;;;;;;;22.24;14.91;98051.72;5126509;28;1976;-79
2021/01/18 05:21:09;;;;;;;;;;;;;;;21.89;15.06;98041.34;5127354;28;626;-79
2021/01/18 05:23:41;;;;;;;;;;;;;;;22.08;15.08;98043.25;5126489;28;653;-79
2021/01/18 05:26:16;;;;;;;;;;;;;;;22.05;15.37;98044.13;5110468;28;638;-79
2021/01/18 05:28:42;;;;;;;;;;;;;;;22.29;15.05;98039.81;5126856;28;668;-79
2021/01/18 05:31:08;;;;;;;;;;;;;;;21.91;15.16;98038.84;5127520;28;796;-79
2021/01/18 05:33:34;;;;;;;;;;;;;;;21.89;15.45;98047.00;5126476;28;912;-79
2021/01/18 05:35:59;;;;;;;;;;;;;;;22.27;14.88;98050.78;5109782;28;1445;-79
2021/01/18 05:38:25;;;;;;;;;;;;;;;22.44;14.94;98051.56;5126449;28;1909;-79
2021/01/18 05:40:50;;;;;;;;;;;;;;;21.78;15.30;98039.59;5110358;28;1330;-79
2021/01/18 05:43:16;;;;;;;;;;;;;;;21.95;15.14;98045.22;5108098;28;657;-79
2021/01/18 05:45:42;;;;;;;;;;;;;;;22.49;14.51;98044.53;5126413;28;542;-78
2021/01/18 05:48:08;;;;;;;;;;;;;;;22.38;14.72;98050.50;5125488;28;981;-79
2021/01/18 05:50:34;;;;;;;;;;;;;;;21.98;15.03;98047.94;5108132;28;876;-79
2021/01/18 05:52:59;;;;;;;;;;;;;;;22.28;15.15;98052.41;5108100;28;986;-78
2021/01/18 05:55:28;;;;;;;;;;;;;;;22.14;15.18;98052.03;5126734;28;992;-79
2021/01/18 05:58:00;;;;;;;;;;;;;;;22.02;15.29;98045.81;5108705;28;642;-79
2021/01/18 06:00:29;;;;;;;;;;;;;;;22.91;14.60;98041.66;5109034;28;681;-79
2021/01/18 06:03:10;;;;;;;;;;;;;;;22.48;14.66;98051.44;5123126;28;1376;-78
2021/01/18 06:05:36;;;;;;;;;;;;;;;22.85;14.73;98044.25;5122741;28;868;-74
2021/01/18 06:08:08;;;;;;;;;;;;;;;21.45;16.06;98052.16;5121619;28;713;-75
2021/01/18 06:10:34;;;;;;;;;;;;;;;21.59;16.47;98057.47;5122066;28;729;-74
2021/01/18 06:12:59;;;;;;;;;;;;;;;22.79;15.50;98055.34;5123729;28;685;-79
2021/01/18 06:15:25;;;;;;;;;;;;;;;22.88;15.55;98066.84;5105608;28;682;-78
2021/01/18 06:17:51;;;;;;;;;;;;;;;23.38;15.91;98065.28;5104386;28;925;-72
2021/01/18 06:20:20;;;;;;;;;;;;;;;21.64;18.32;98065.44;5104519;28;1980;-77
2021/01/18 06:22:52;;;;;;;;;;;;;;;22.95;17.10;98060.19;5106513;28;955;-79
2021/01/18 06:25:18;;;;;;;;;;;;;;;22.84;16.63;98077.47;5124484;28;717;-78
2021/01/18 06:27:43;;;;;;;;;;;;;;;22.81;16.69;98072.72;5105859;28;745;-77
2021/01/18 06:30:29;;;;;;;;;;;;;;;22.66;16.55;98071.56;5122645;28;858;-78
2021/01/18 06:32:55;;;;;;;;;;;;;;;22.92;16.26;98077.31;5122067;28;1139;-78
2021/01/18 06:35:24;;;;;;;;;;;;;;;22.43;16.79;98075.44;5122898;28;867;-77
2021/01/18 06:38:16;;;;;;;;;;;;;;;22.50;16.60;98074.47;5105444;28;1127;-78
2021/01/18 06:40:41;;;;;;;;;;;;;;;22.42;16.32;98075.91;5118964;28;1323;-77
2021/01/18 06:43:07;;;;;;;;;;;;;;;22.51;16.28;98076.06;5131631;27;1028;-77
2021/01/18 06:45:34;;;;;;;;;;;;;;;22.05;16.82;98072.44;5124718;27;621;-77
2021/01/18 06:48:00;;;;;;;;;;;;;;;22.35;16.15;98080.53;5124244;28;688;-77
2021/01/18 06:50:29;;;;;;;;;;;;;;;22.36;16.25;98082.13;5132949;27;917;-78
2021/01/18 06:52:55;;;;;;;;;;;;;;;22.75;15.71;98079.41;5110982;28;991;-78
2021/01/18 06:55:23;;;;;;;;;;;;;;;22.30;16.21;98083.13;5120819;28;968;-78
2021/01/18 06:57:52;;;;;;;;;;;;;;;22.17;16.48;98083.06;5121055;28;780;-78
2021/01/18 07:00:17;;;;;;;;;;;;;;;22.22;16.40;98093.88;5121815;28;1882;-78
2021/01/18 07:02:53;;;;;;;;;;;;;;;22.52;16.18;98100.31;5123481;28;661;-79
2021/01/18 07:05:22;;;;;;;;;;;;;;;22.40;16.12;98109.59;5122183;28;786;-78
2021/01/18 07:07:55;;;;;;;;;;;;;;;22.49;15.77;98106.91;5122109;28;983;-79
2021/01/18 07:10:20;;;;;;;;;;;;;;;22.85;15.49;98107.47;5122309;28;989;-79
2021/01/18 07:12:45;;;;;;;;;;;;;;;22.33;15.98;98100.06;5122407;28;673;-79
2021/01/18 07:15:11;;;;;;;;;;;;;;;22.17;15.99;98102.91;5105557;28;1278;-79
2021/01/18 07:17:40;;;;;;;;;;;;;;;22.04;16.24;98111.34;5122452;28;778;-78
2021/01/18 07:20:05;;;;;;;;;;;;;;;22.39;15.73;98113.69;5121467;28;1971;-78
2021/01/18 07:22:35;;;;;;;;;;;;;;;22.69;15.68;98115.22;5104312;28;941;-78
2021/01/18 07:25:02;;;;;;;;;;;;;;;22.33;15.78;98117.06;5121010;28;929;-80
2021/01/18 07:27:28;;;;;;;;;;;;;;;22.49;15.58;98123.94;5124582;28;1087;-79
2021/01/18 07:29:53;;;;;;;;;;;;;;;22.55;15.49;98127.81;5122712;28;641;-78
2021/01/18 07:32:20;;;;;;;;;;;;;;;22.33;15.80;98128.41;5121500;28;621;-78
2021/01/18 07:34:46;;;;;;;;;;;;;;;22.56;15.88;98126.56;5119781;28;1023;-78
2021/01/18 07:37:11;;;;;;;;;;;;;;;22.73;15.61;98127.28;5122944;28;957;-78
2021/01/18 07:39:40;;;;;;;;;;;;;;;22.61;15.69;98137.34;5126795;28;1961;-82
2021/01/18 07:42:26;;;;;;;;;;;;;;;23.09;15.37;98132.72;5128289;28;905;-85
2021/01/18 07:44:54;;;;;;;;;;;;;;;23.14;15.13;98134.97;5117524;28;1069;-78
2021/01/18 07:47:19;;;;;;;;;;;;;;;23.40;15.16;98130.91;5127874;28;1295;-82
2021/01/18 07:49:44;;;;;;;;;;;;;;;22.59;15.64;98137.00;5126201;28;885;-83
2021/01/18 07:52:24;;;;;;;;;;;;;;;23.11;15.53;98136.69;5129107;28;876;-85
2021/01/18 07:54:49;;;;;;;;;;;;;;;23.28;15.67;98145.91;5109691;28;1111;-79
2021/01/18 07:57:27;;;;;;;;;;;;;;;23.49;15.14;98149.31;5127021;28;681;-79
2021/01/18 08:00:11;;;;;;;;;;;;;;;23.54;15.04;98140.22;5126921;28;1975;-79
2021/01/18 08:02:37;;;;;;;;;;;;;;;23.67;15.10;98143.88;5129724;28;688;-83
2021/01/18 08:05:21;;;;;;;;;;;;;;;22.63;16.03;98140.50;5127782;28;944;-81
2021/01/18 08:08:00;;;;;;;;;;;;;;;22.82;16.09;98135.94;5128738;28;818;-84
2021/01/18 08:10:45;;;;;;;;;;;;;;;23.66;15.01;98136.59;5110536;28;602;-84
2021/01/18 08:13:29;;;;;;;;;;;;;;;23.87;15.21;98135.91;5119686;28;831;-79
2021/01/18 08:15:55;;;;;;;;;;;;;;;23.39;15.06;98135.00;5125896;28;922;-81
2021/01/18 08:18:30;;;;;;;;;;;;;;;23.16;15.58;98137.38;5101095;28;1874;-83
2021/01/18 08:20:55;;;;;;;;;;;;;;;22.95;15.70;98138.81;5093464;28;880;-81
2021/01/18 08:23:39;;;;;;;;;;;;;;;23.23;15.58;98137.94;5106826;28;858;-80
2021/01/18 08:26:06;;;;;;;;;;;;;;;23.15;15.94;98133.72;5126616;28;780;-80
2021/01/18 08:28:34;;;;;;;;;;;;;;;23.39;15.20;98129.31;5107823;28;1464;-83
2021/01/18 08:30:59;;;;;;;;;;;;;;;23.44;15.41;98141.38;5126551;28;632;-81
2021/01/18 08:33:25;;;;;;;;;;;;;;;23.57;15.15;98145.00;5107483;28;928;-82
2021/01/18 08:35:51;;;;;;;;;;;;;;;23.78;14.89;98138.66;5091859;28;861;-80
2021/01/18 08:38:30;;;;;;;;;;;;;;;23.38;15.20;98144.78;5091010;28;1897;-81
2021/01/18 08:41:04;;;;;;;;;;;;;;;22.67;16.25;98135.53;5090081;28;1200;-81
2021/01/18 08:43:49;;;;;;;;;;;;;;;23.21;15.54;98137.63;5124881;28;680;-79
2021/01/18 08:46:31;;;;;;;;;;;;;;;22.73;16.43;98136.56;5125944;28;625;-79
2021/01/18 08:49:23;;;;;;;;;;;;;;;23.22;16.00;98142.03;5122702;28;870;-79
2021/01/18 08:51:49;;;;;;;;;;;;;;;22.21;16.79;98143.28;5122543;28;1045;-81
2021/01/18 08:54:33;;;;;;;;;;;;;;;22.49;16.50;98143.78;5099822;28;1110;-82
2021/01/18 08:57:28;;;;;;;;;;;;;;;22.75;16.45;98142.63;5123718;28;748;-80
2021/01/18 09:00:06;;;;;;;;;;;;;;;23.02;16.31;98145.09;5108697;28;1882;-81
2021/01/18 09:02:32;;;;;;;;;;;;;;;23.14;16.01;98143.50;5102981;28;1270;-78
2021/01/18 09:05:16;;;;;;;;;;;;;;;22.75;16.48;98145.44;5123043;28;1033;-79
2021/01/18 09:07:43;;;;;;;;;;;;;;;22.94;16.49;98142.91;5124728;28;879;-81
2021/01/18 09:10:12;;;;;;;;;;;;;;;23.73;15.64;98142.06;5093256;28;852;-83
2021/01/18 09:12:37;;;;;;;;;;;;;;;23.84;15.54;98153.09;5108831;28;785;-80
2021/01/18 09:15:06;;;;;;;;;;;;;;;23.40;15.80;98153.63;5106898;28;933;-80
2021/01/18 09:17:32;;;;;;;;;;;;;;;22.70;16.77;98146.00;5109343;28;788;-84
2021/01/18 09:19:57;;;;;;;;;;;;;;;23.17;16.37;98151.13;5092699;28;1982;-83
2021/01/18 09:22:23;;;;;;;;;;;;;;;22.27;17.28;98143.53;5104927;28;1298;-82
2021/01/18 09:24:49;;;;;;;;;;;;;;;22.17;17.57;98147.47;5109834;28;825;-82
2021/01/18 09:27:15;;;;;;;;;;;;;;;21.89;17.83;98148.97;5110775;28;1478;-83
2021/01/18 09:29:42;;;;;;;;;;;;;;;22.65;17.14;98138.03;5127408;28;551;-83
2021/01/18 09:32:07;;;;;;;;;;;;;;;23.22;16.79;98144.88;5108995;28;950;-68
2021/01/18 09:34:33;;;;;;;;;;;;;;;23.02;16.98;98138.63;5125750;28;843;-81
2021/01/18 09:37:07;;;;;;;;;;;;;;;22.54;17.46;98131.88;5124682;28;899;-82
2021/01/18 09:39:33;;;;;;;;;;;;;;;21.98;18.01;98140.66;5125498;28;1972;-82
2021/01/18 09:42:00;;;;;;;;;;;;;;;22.56;17.66;98135.06;5108624;28;829;-83
2021/01/18 09:44:44;;;;;;;;;;;;;;;22.24;17.83;98131.06;5112050;28;1137;-83
2021/01/18 09:47:10;;;;;;;;;;;;;;;22.64;17.46;98125.13;5123895;28;957;-80
2021/01/18 09:49:36;;;;;;;;;;;;;;;22.59;17.46;98128.50;5122551;28;820;-79
2021/01/18 09:52:01;;;;;;;;;;;;;;;22.10;17.94;98125.75;5122793;28;789;-80
2021/01/18 09:54:26;;;;;;;;;;;;;;;22.30;17.52;98117.94;5122140;28;1157;-78
2021/01/18 09:56:52;;;;;;;;;;;;;;;22.22;17.78;98116.53;5120948;28;641;-77
2021/01/18 09:59:18;;;;;;;;;;;;;;;22.03;18.16;98120.28;5119568;28;1984;-79
2021/01/18 10:01:43;;;;;;;;;;;;;;;21.91;18.21;98118.94;5120853;28;840;-78
2021/01/18 10:04:08;;;;;;;;;;;;;;;21.28;18.87;98105.91;5121258;28;816;-77
2021/01/18 10:06:34;;;;;;;;;;;;;;;21.63;18.22;98109.16;5120437;28;1303;-77
2021/01/18 10:09:03;;;;;;;;;;;;;;;21.85;18.23;98092.41;5103030;28;1048;-78
2021/01/18 10:11:39;;;;;;;;;;;;;;;22.32;17.72;98086.31;5121458;28;729;-79
2021/01/18 10:14:04;;;;;;;;;;;;;;;22.56;17.54;98079.13;5120098;28;988;-79
2021/01/18 10:16:30;;;;;;;;;;;;;;;22.74;17.55;98078.63;5119886;28;812;-79
2021/01/18 10:18:56;;;;;;;;;;;;;;;22.88;17.02;98083.06;5121125;28;1965;-80
2021/01/18 10:21:31;;;;;;;;;;;;;;;22.57;17.47;98079.94;5119993;28;785;-80
2021/01/18 10:23:57;;;;;;;;;;;;;;;22.23;17.92;98074.84;5120662;28;617;-78
2021/01/18 10:26:26;;;;;;;;;;;;;;;22.33;17.81;98077.38;5120935;28;650;-80
2021/01/18 10:28:58;;;;;;;;;;;;;;;22.27;17.71;98069.84;5119971;28;831;-77
2021/01/18 10:31:27;;;;;;;;;;;;;;;22.21;17.99;98068.81;5119578;28;888;-78
2021/01/18 10:34:11;;;;;;;;;;;;;;;22.01;18.03;98063.25;5120472;28;650;-78
2021/01/18 10:36:36;;;;;;;;;;;;;;;21.54;18.71;98061.63;5122391;28;657;-80
2021/01/18 10:39:02;;;;;;;;;;;;;;;21.96;18.53;98063.78;5119788;28;1986;-80
2021/01/18 10:41:28;;;;;;;;;;;;;;;21.57;18.58;98065.63;5122658;28;633;-83
2021/01/18 10:43:54;;;;;;;;;;;;;;;21.31;19.00;98065.47;5126018;28;917;-83
2021/01/18 10:46:19;;;;;;;;;;;;;;;21.24;19.05;98059.13;5126938;28;921;-83
2021/01/18 10:48:53;;;;;;;;;;;;;;;21.51;18.48;98047.59;5111595;28;1307;-84
2021/01/18 10:51:23;;;;;;;;;;;;;;;21.22;18.89;98051.09;5128333;28;778;-84
2021/01/18 10:53:50;;;;;;;;;;;;;;;21.32;18.60;98052.88;5112366;28;1179;-84
2021/01/18 10:56:16;;;;;;;;;;;;;;;21.57;18.43;98057.13;5111469;28;1098;-84
2021/01/18 10:58:41;;;;;;;;;;;;;;;21.36;18.33;98043.53;5111316;28;1949;-83
2021/01/18 11:01:10;;;;;;;;;;;;;;;21.47;18.35;98050.50;5109823;28;905;-84
2021/01/18 11:03:36;;;;;;;;;;;;;;;21.07;18.81;98055.50;5110780;28;1192;-83
2021/01/18 11:06:12;;;;;;;;;;;;;;;21.19;18.57;98052.00;5127525;28;649;-83
2021/01/18 11:08:37;;;;;;;;;;;;;;;22.08;17.71;98043.25;5128000;28;693;-84
2021/01/18 11:11:14;;;;;;;;;;;;;;;21.33;18.38;98045.19;5110760;28;1191;-84
2021/01/18 11:13:41;;;;;;;;;;;;;;;21.38;18.43;98046.69;5116593;28;1264;-85
2021/01/18 11:16:09;;;;;;;;;;;;;;;20.99;18.86;98042.78;5132386;28;961;-85
2021/01/18 11:18:35;;;;;;;;;;;;;;;21.58;18.19;98036.88;5116691;28;1985;-84
2021/01/18 11:21:00;;;;;;;;;;;;;;;21.37;18.33;98045.13;5133380;28;792;-84
2021/01/18 11:23:26;;;;;;;;;;;;;;;22.04;17.80;98039.69;5116155;28;1174;-85
2021/01/18 11:25:51;;;;;;;;;;;;;;;21.64;18.04;98042.00;5115617;28;877;-84
2021/01/18 11:28:17;;;;;;;;;;;;;;;21.92;17.87;98035.59;5132595;28;943;-85
2021/01/18 11:30:43;;;;;;;;;;;;;;;21.24;18.29;98042.97;5132511;28;884;-85
2021/01/18 11:33:11;;;;;;;;;;;;;;;22.03;17.78;98040.94;5133082;28;994;-84
2021/01/18 11:35:37;;;;;;;;;;;;;;;21.91;17.74;98044.50;5114865;28;618;-84
2021/01/18 11:38:03;;;;;;;;;;;;;;;22.02;17.59;98039.34;5129263;28;579;-84
2021/01/18 11:40:29;;;;;;;;;;;;;;;21.81;17.88;98046.38;5128790;28;1966;-83
2021/01/18 11:42:57;;;;;;;;;;;;;;;22.09;17.25;98050.50;5128532;28;864;-83
2021/01/18 11:45:23;;;;;;;;;;;;;;;22.18;17.53;98050.69;5106249;28;959;-78
2021/01/18 11:47:49;;;;;;;;;;;;;;;21.45;18.06;98057.84;5123370;28;1051;-78
2021/01/18 11:50:15;;;;;;;;;;;;;;;21.74;17.53;98060.75;5106774;28;1314;-79
2021/01/18 11:52:41;;;;;;;;;;;;;;;21.82;17.88;98054.44;5123275;28;904;-80
2021/01/18 11:55:07;;;;;;;;;;;;;;;21.74;17.70;98058.69;5123294;28;1174;-83
2021/01/18 11:57:35;;;;;;;;;;;;;;;21.64;17.62;98054.09;5124842;28;915;-81
2021/01/18 12:00:01;;;;;;;;;;;;;;;22.14;17.30;98049.97;5125351;28;2026;-79
2021/01/18 12:02:26;;;;;;;;;;;;;;;21.95;17.58;98050.88;5107556;28;1274;-78
2021/01/18 12:04:52;;;;;;;;;;;;;;;21.63;17.73;98054.56;5123963;28;662;-79
2021/01/18 12:07:17;;;;;;;;;;;;;;;22.03;17.25;98040.94;5123606;28;622;-80
2021/01/18 12:09:43;;;;;;;;;;;;;;;21.84;17.56;98046.28;5124654;27;918;-78
2021/01/18 12:12:08;;;;;;;;;;;;;;;22.06;17.35;98045.72;5124104;28;901;-80
2021/01/18 12:14:34;;;;;;;;;;;;;;;21.42;17.79;98053.06;5122894;28;879;-79
2021/01/18 12:17:00;;;;;;;;;;;;;;;21.85;17.46;98052.75;5124145;28;644;-78
2021/01/18 12:19:25;;;;;;;;;;;;;;;21.64;17.35;98061.81;5123822;28;1971;-80
2021/01/18 12:21:53;;;;;;;;;;;;;;;21.43;17.73;98063.16;5124507;28;694;-80
2021/01/18 12:24:18;;;;;;;;;;;;;;;21.90;17.39;98059.91;5123570;28;827;-79
2021/01/18 12:26:44;;;;;;;;;;;;;;;21.53;17.68;98059.25;5123428;28;921;-79
2021/01/18 12:29:09;;;;;;;;;;;;;;;21.78;17.37;98058.63;5123345;28;939;-80
2021/01/18 12:31:36;;;;;;;;;;;;;;;21.82;17.21;98057.28;5123776;28;665;-79
2021/01/18 12:34:03;;;;;;;;;;;;;;;22.05;17.09;98055.44;5122904;28;672;-77
2021/01/18 12:36:28;;;;;;;;;;;;;;;22.57;16.66;98063.69;5122192;28;681;-79
2021/01/18 12:38:54;;;;;;;;;;;;;;;22.91;16.27;98064.38;5122595;28;1898;-78
2021/01/18 12:41:38;;;;;;;;;;;;;;;23.00;16.51;98068.13;5121794;28;1002;-77
2021/01/18 12:44:07;;;;;;;;;;;;;;;22.69;16.59;98070.66;5122490;28;928;-77
2021/01/18 12:46:32;;;;;;;;;;;;;;;22.63;16.55;98069.63;5122712;28;617;-77
2021/01/18 12:48:58;;;;;;;;;;;;;;;22.24;17.40;98084.94;5121833;28;610;-78
2021/01/18 12:51:24;;;;;;;;;;;;;;;22.16;17.39;98078.66;5121960;28;701;-78
2021/01/18 12:53:49;;;;;;;;;;;;;;;22.65;17.27;98084.16;5122519;28;651;-79
2021/01/18 12:56:18;;;;;;;;;;;;;;;22.78;17.22;98079.28;5121776;28;968;-77
2021/01/18 12:58:44;;;;;;;;;;;;;;;22.52;17.29;98091.81;5121700;28;1898;-74
2021/01/18 13:01:09;;;;;;;;;;;;;;;22.91;16.99;98087.88;5122495;28;871;-77
2021/01/18 13:03:35;;;;;;;;;;;;;;;22.58;17.13;98087.97;5122213;28;634;-78
2021/01/18 13:06:00;;;;;;;;;;;;;;;22.72;17.44;98100.94;5122375;28;621;-78
2021/01/18 13:08:26;;;;;;;;;;;;;;;23.04;16.89;98104.88;5122041;28;649;-78
2021/01/18 13:11:02;;;;;;;;;;;;;;;22.80;17.42;98099.50;5122226;28;917;-78